Time;durP1;ratioP1;P1;durP2;ratioP2;P2;SDS_P1;SDS_P2;PMS_P1;PMS_P2;Temp;Humidity;BMP_temperature;BMP_pressure;BME280_temperature;BME280_humidity;BME280_pressure;Samples;Min_cycle;Max_cycle;Signal;HPM_P1;HPM_P2
2022/04/22 00:01:36;;;;;;;18.35;16.23;;;9.60;99.90;;;;;;5058409;28;20222;-62
2022/04/22 00:04:03;;;;;;;20.15;18.15;;;9.60;99.90;;;;;;5057976;28;20182;-62
2022/04/22 00:06:31;;;;;;;17.93;16.17;;;9.50;99.90;;;;;;5053309;28;20614;-62
2022/04/22 00:08:58;;;;;;;17.60;15.68;;;9.50;99.90;;;;;;5053393;28;20471;-63
2022/04/22 00:11:31;;;;;;;18.88;16.88;;;9.50;99.90;;;;;;5053092;28;20244;-64
2022/04/22 00:13:59;;;;;;;18.25;16.35;;;9.40;99.90;;;;;;5053053;28;20205;-63
2022/04/22 00:16:27;;;;;;;18.23;16.38;;;9.40;99.90;;;;;;5052608;28;20197;-62
2022/04/22 00:18:56;;;;;;;20.58;17.48;;;9.40;99.90;;;;;;5052810;28;20205;-62
2022/04/22 00:21:23;;;;;;;20.75;17.60;;;9.30;99.90;;;;;;5052953;28;20228;-62
2022/04/22 00:23:51;;;;;;;19.20;16.55;;;9.30;99.90;;;;;;5052521;28;20209;-63
2022/04/22 00:26:19;;;;;;;22.25;18.38;;;9.30;99.90;;;;;;5056309;28;20201;-63
2022/04/22 00:28:46;;;;;;;19.35;16.95;;;9.20;99.90;;;;;;5057285;28;20197;-63
2022/04/22 00:31:13;;;;;;;24.08;17.67;;;9.20;99.90;;;;;;5057007;28;20221;-64
2022/04/22 00:33:41;;;;;;;20.63;16.75;;;9.20;99.90;;;;;;5056790;28;20225;-63
2022/04/22 00:36:10;;;;;;;21.88;17.02;;;9.20;99.90;;;;;;5057223;28;20202;-63
2022/04/22 00:38:37;;;;;;;20.30;18.20;;;9.10;99.90;;;;;;5056745;28;20197;-63
2022/04/22 00:41:05;;;;;;;20.30;17.80;;;9.10;99.90;;;;;;5056894;28;20235;-63
2022/04/22 00:43:42;;;;;;;20.05;17.90;;;9.10;99.90;;;;;;5056457;28;20205;-63
2022/04/22 00:46:10;;;;;;;23.17;17.33;;;9.00;99.90;;;;;;5056768;28;20247;-63
2022/04/22 00:48:37;;;;;;;21.17;19.10;;;9.00;99.90;;;;;;5056376;28;20202;-64
2022/04/22 00:51:05;;;;;;;22.67;19.25;;;8.90;99.90;;;;;;5056716;28;20221;-63
2022/04/22 00:53:34;;;;;;;21.58;19.25;;;8.90;99.90;;;;;;5056774;28;20201;-64
2022/04/22 00:56:04;;;;;;;21.05;18.90;;;8.80;99.90;;;;;;5056246;28;20614;-61
2022/04/22 00:58:31;;;;;;;25.77;18.30;;;8.80;99.90;;;;;;5056468;28;20198;-63
2022/04/22 01:01:00;;;;;;;21.70;19.40;;;8.80;99.90;;;;;;5056446;28;20308;-63
2022/04/22 01:03:27;;;;;;;22.95;19.52;;;8.80;99.90;;;;;;5056032;28;20205;-63
2022/04/22 01:11:27;;;;;;;27.15;20.10;;;8.70;99.90;;;;;;5056308;28;20699;-63
2022/04/22 01:13:55;;;;;;;26.17;20.70;;;8.70;99.90;;;;;;5056850;28;20268;-62
2022/04/22 01:16:23;;;;;;;22.55;19.55;;;8.70;99.90;;;;;;5056863;28;20204;-63
2022/04/22 01:18:50;;;;;;;26.67;19.65;;;8.70;99.90;;;;;;5056717;28;20198;-63
2022/04/22 01:21:18;;;;;;;21.65;19.30;;;8.70;99.90;;;;;;5056320;28;20222;-63
2022/04/22 01:23:45;;;;;;;22.00;19.42;;;8.70;99.90;;;;;;5055963;28;20248;-62
2022/04/22 01:26:14;;;;;;;20.85;18.70;;;8.70;99.90;;;;;;5055904;28;20201;-62
2022/04/22 01:28:41;;;;;;;21.63;19.42;;;8.70;99.90;;;;;;5056394;28;20206;-63
2022/04/22 01:31:09;;;;;;;24.02;19.17;;;8.70;99.90;;;;;;5055798;28;20228;-62
2022/04/22 01:33:36;;;;;;;22.02;18.80;;;8.70;99.90;;;;;;5056149;28;20197;-63
2022/04/22 01:36:03;;;;;;;21.08;18.83;;;8.80;99.90;;;;;;5055245;28;20205;-61
2022/04/22 01:38:31;;;;;;;24.30;19.88;;;8.70;99.90;;;;;;5056138;28;20202;-63
2022/04/22 01:40:58;;;;;;;23.27;19.73;;;8.80;99.90;;;;;;5055929;28;20229;-63
2022/04/22 01:43:25;;;;;;;24.00;20.38;;;8.80;99.90;;;;;;5057806;28;20536;-62
2022/04/22 01:45:53;;;;;;;20.70;18.60;;;8.70;99.90;;;;;;5056437;28;20198;-63
2022/04/22 01:48:21;;;;;;;21.15;18.90;;;8.70;99.90;;;;;;5055745;28;20240;-62
2022/04/22 01:50:48;;;;;;;20.58;17.85;;;8.70;99.90;;;;;;5055735;28;20257;-62
2022/04/22 01:53:15;;;;;;;24.42;18.73;;;8.60;99.90;;;;;;5055376;28;20677;-62
2022/04/22 01:55:43;;;;;;;25.55;18.75;;;8.60;99.90;;;;;;5055313;28;20228;-62
2022/04/22 01:58:10;;;;;;;19.88;17.65;;;8.50;99.90;;;;;;5056294;28;20693;-62
2022/04/22 02:00:37;;;;;;;20.60;18.52;;;8.50;99.90;;;;;;5056551;28;20221;-62
2022/04/22 02:03:04;;;;;;;21.17;18.98;;;8.50;99.90;;;;;;5057454;28;20198;-63
2022/04/22 02:05:33;;;;;;;23.58;19.15;;;8.40;99.90;;;;;;5056669;28;20201;-63
2022/04/22 02:08:00;;;;;;;22.63;19.17;;;8.40;99.90;;;;;;5056089;28;20688;-63
2022/04/22 02:10:28;;;;;;;20.88;18.58;;;8.40;99.90;;;;;;5056201;28;20230;-62
2022/04/22 02:12:56;;;;;;;24.15;17.48;;;8.40;99.90;;;;;;5056306;28;20202;-62
2022/04/22 02:15:26;;;;;;;22.20;17.27;;;8.40;99.90;;;;;;5055598;28;20217;-62
2022/04/22 02:17:53;;;;;;;17.92;16.00;;;8.40;99.90;;;;;;5055458;28;20705;-63
2022/04/22 02:20:21;;;;;;;18.52;15.80;;;8.50;99.90;;;;;;5055627;28;20728;-61
2022/04/22 02:22:48;;;;;;;15.48;13.95;;;8.50;99.90;;;;;;5055733;28;20209;-63
2022/04/22 02:25:15;;;;;;;17.90;14.68;;;8.50;99.90;;;;;;5055787;28;20201;-62
2022/04/22 02:30:28;;;;;;;19.10;14.63;;;8.60;99.90;;;;;;5058149;28;20330;-62
2022/04/22 02:32:56;;;;;;;15.50;13.20;;;8.60;99.90;;;;;;5057465;28;20551;-63
2022/04/22 02:35:23;;;;;;;15.45;13.85;;;8.70;99.90;;;;;;5055963;28;20257;-63
2022/04/22 02:37:50;;;;;;;15.40;13.82;;;8.70;99.90;;;;;;5056248;28;20205;-62
2022/04/22 02:45:44;;;;;;;15.65;13.95;;;8.70;99.90;;;;;;5055217;28;20208;-62
2022/04/22 02:48:11;;;;;;;16.50;13.80;;;8.70;99.90;;;;;;5053811;28;20233;-63
2022/04/22 02:50:38;;;;;;;14.27;12.77;;;8.80;99.90;;;;;;5054962;28;20593;-62
2022/04/22 02:53:05;;;;;;;15.40;13.63;;;8.80;99.90;;;;;;5053992;28;20205;-62
2022/04/22 02:55:33;;;;;;;15.23;12.63;;;8.80;99.90;;;;;;5054154;28;20232;-62
2022/04/22 02:58:01;;;;;;;16.27;12.52;;;8.80;99.90;;;;;;5054083;28;20290;-62
2022/04/22 03:00:28;;;;;;;11.85;10.48;;;8.80;99.90;;;;;;5054103;28;20251;-62
2022/04/22 03:02:56;;;;;;;11.82;10.73;;;8.80;99.90;;;;;;5053899;28;20208;-63
2022/04/22 03:05:23;;;;;;;10.05;8.73;;;8.80;99.90;;;;;;5053438;28;20197;-62
2022/04/22 03:07:50;;;;;;;11.75;9.05;;;8.80;99.90;;;;;;5053560;28;20202;-61
2022/04/22 03:10:18;;;;;;;8.80;7.50;;;8.80;99.90;;;;;;5053828;28;20222;-62
2022/04/22 03:12:45;;;;;;;10.02;7.18;;;8.70;99.90;;;;;;5053889;28;20723;-62
2022/04/22 03:15:16;;;;;;;8.50;7.60;;;8.70;99.90;;;;;;5053724;28;20217;-62
2022/04/22 03:17:43;;;;;;;8.23;6.00;;;8.70;99.90;;;;;;5053422;28;20225;-62
2022/04/22 03:20:12;;;;;;;7.03;6.18;;;8.60;99.90;;;;;;5053430;28;20224;-63
2022/04/22 03:22:39;;;;;;;7.13;6.05;;;8.60;99.90;;;;;;5055311;28;20217;-63
2022/04/22 03:25:08;;;;;;;10.05;5.38;;;8.60;99.90;;;;;;5053921;28;20198;-63
2022/04/22 03:27:35;;;;;;;7.35;4.95;;;8.60;99.90;;;;;;5053357;28;20197;-62
2022/04/22 03:30:03;;;;;;;7.40;4.85;;;8.60;99.90;;;;;;5053681;28;20308;-62
2022/04/22 03:32:30;;;;;;;7.88;4.65;;;8.50;99.90;;;;;;5053777;28;20198;-62
2022/04/22 03:34:57;;;;;;;7.03;4.85;;;8.50;99.90;;;;;;5053290;28;20261;-63
2022/04/22 03:37:26;;;;;;;5.07;4.43;;;8.50;99.90;;;;;;5053454;28;20684;-63
2022/04/22 03:39:56;;;;;;;5.60;5.00;;;8.50;99.90;;;;;;5054286;28;20206;-63
2022/04/22 03:42:24;;;;;;;6.32;5.40;;;8.40;99.90;;;;;;5053097;28;20338;-61
2022/04/22 03:44:51;;;;;;;5.25;4.75;;;8.40;99.90;;;;;;5053034;28;20204;-62
2022/04/22 03:47:18;;;;;;;6.72;4.95;;;8.40;99.90;;;;;;5052862;28;20578;-62
2022/04/22 03:49:45;;;;;;;5.18;4.68;;;8.40;99.90;;;;;;5052869;28;20198;-63
2022/04/22 03:52:12;;;;;;;7.70;5.22;;;8.40;99.90;;;;;;5053220;28;20213;-62
2022/04/22 03:54:40;;;;;;;6.47;4.90;;;8.40;99.90;;;;;;5053033;28;20229;-63
2022/04/22 03:59:54;;;;;;;7.32;4.18;;;8.40;99.90;;;;;;5052551;28;20189;-63
2022/04/22 04:02:21;;;;;;;6.47;4.50;;;8.40;99.90;;;;;;5052908;28;20225;-62
2022/04/22 04:04:48;;;;;;;6.10;4.30;;;8.40;99.90;;;;;;5053019;28;20197;-63
2022/04/22 04:17:56;;;;;;;4.43;4.00;;;8.30;99.90;;;;;;5152312;27;20626;-63
2022/04/22 04:23:17;;;;;;;5.40;4.25;;;8.30;99.90;;;;;;5152076;27;20649;-63
2022/04/22 04:25:48;;;;;;;6.25;4.53;;;8.30;99.90;;;;;;5152187;27;20638;-63
2022/04/22 04:28:17;;;;;;;4.28;3.88;;;8.30;99.90;;;;;;5151609;27;20242;-61
2022/04/22 04:30:45;;;;;;;5.60;4.10;;;8.30;99.90;;;;;;5151901;27;20226;-62
2022/04/22 04:33:12;;;;;;;4.68;4.22;;;8.20;99.90;;;;;;5151973;27;20228;-61
2022/04/22 04:35:40;;;;;;;5.57;3.65;;;8.20;99.90;;;;;;5152008;27;20229;-62
2022/04/22 04:38:08;;;;;;;6.03;4.35;;;8.20;99.90;;;;;;5151915;27;20723;-61
2022/04/22 04:40:35;;;;;;;8.10;4.38;;;8.20;99.90;;;;;;5152075;27;20221;-61
2022/04/22 04:43:05;;;;;;;4.90;4.13;;;8.20;99.90;;;;;;5151833;27;20203;-61
2022/04/22 04:45:33;;;;;;;4.30;3.90;;;8.10;99.90;;;;;;5153488;27;20556;-62
2022/04/22 04:48:00;;;;;;;6.25;4.22;;;8.10;99.90;;;;;;5151978;27;20234;-61
2022/04/22 04:50:27;;;;;;;8.75;4.40;;;8.10;99.90;;;;;;5151975;27;20233;-61
2022/04/22 04:52:54;;;;;;;3.88;3.50;;;8.10;99.90;;;;;;5151873;27;20206;-62
2022/04/22 04:55:21;;;;;;;4.30;3.80;;;8.00;99.90;;;;;;5151702;27;20210;-62
2022/04/22 04:57:48;;;;;;;6.03;4.05;;;8.00;99.90;;;;;;5151493;27;20194;-62
2022/04/22 05:00:18;;;;;;;4.30;3.90;;;8.00;99.90;;;;;;5151413;27;20564;-62
2022/04/22 05:02:46;;;;;;;5.05;3.78;;;8.10;99.90;;;;;;5151491;27;20680;-62
2022/04/22 05:05:13;;;;;;;5.07;3.55;;;8.10;99.90;;;;;;5151424;27;20237;-62
2022/04/22 05:07:51;;;;;;;5.38;3.75;;;8.10;99.90;;;;;;5151206;27;20262;-62
2022/04/22 05:10:19;;;;;;;4.50;3.78;;;8.10;99.90;;;;;;5150969;27;20214;-62
2022/04/22 05:12:46;;;;;;;5.18;3.50;;;8.10;99.90;;;;;;5151739;27;20277;-63
2022/04/22 05:15:14;;;;;;;11.05;4.32;;;8.10;99.90;;;;;;5152461;27;20224;-63
2022/04/22 05:17:43;;;;;;;5.45;3.90;;;8.20;99.90;;;;;;5152583;27;20198;-62
2022/04/22 05:20:12;;;;;;;4.50;4.05;;;8.20;99.90;;;;;;5143539;27;20219;-63
2022/04/22 05:22:40;;;;;;;3.88;3.40;;;8.20;99.90;;;;;;5138852;27;20194;-63
2022/04/22 05:25:09;;;;;;;5.93;4.18;;;8.30;99.90;;;;;;5137256;27;20226;-62
2022/04/22 05:27:36;;;;;;;6.93;3.90;;;8.30;99.90;;;;;;5137660;27;20209;-62
2022/04/22 05:32:51;;;;;;;4.47;3.65;;;8.50;99.90;;;;;;5138665;27;20178;-63
2022/04/22 05:35:20;;;;;;;10.38;4.30;;;8.60;99.90;;;;;;5138243;27;20207;-63
2022/04/22 05:37:50;;;;;;;6.90;3.90;;;8.60;99.90;;;;;;5138167;27;20206;-64
2022/04/22 05:40:19;;;;;;;5.00;3.88;;;8.50;99.90;;;;;;5136790;27;20222;-63
2022/04/22 05:42:48;;;;;;;8.63;3.70;;;8.50;99.90;;;;;;5136933;27;20198;-63
2022/04/22 05:45:16;;;;;;;5.25;4.22;;;8.40;99.90;;;;;;5136615;27;20651;-61
2022/04/22 05:47:43;;;;;;;5.50;3.67;;;8.40;99.90;;;;;;5137110;27;20305;-64
2022/04/22 05:50:13;;;;;;;5.15;4.32;;;8.40;99.90;;;;;;5136861;27;20215;-62
2022/04/22 05:52:40;;;;;;;4.32;3.80;;;8.40;99.90;;;;;;5136279;27;20199;-62
2022/04/22 05:55:09;;;;;;;8.88;4.78;;;8.40;99.90;;;;;;5137474;27;20313;-63
2022/04/22 05:57:37;;;;;;;7.93;4.13;;;8.40;99.90;;;;;;5138474;27;20202;-62
2022/04/22 06:00:07;;;;;;;7.80;4.10;;;8.40;99.90;;;;;;5137620;27;20222;-60
2022/04/22 06:02:35;;;;;;;5.60;4.65;;;8.50;99.90;;;;;;5138347;27;20199;-63
2022/04/22 06:05:02;;;;;;;5.30;3.78;;;8.60;99.90;;;;;;5137296;27;20571;-63
2022/04/22 06:07:31;;;;;;;5.00;4.28;;;8.60;99.90;;;;;;5137497;27;20199;-64
2022/04/22 06:12:42;;;;;;;8.20;4.88;;;8.60;99.90;;;;;;5139450;27;20182;-63
2022/04/22 06:15:10;;;;;;;4.78;4.22;;;8.70;99.90;;;;;;5144278;27;20207;-63
2022/04/22 06:17:37;;;;;;;9.68;4.38;;;8.80;99.90;;;;;;5151650;27;20195;-63
2022/04/22 06:20:05;;;;;;;7.68;4.15;;;8.80;99.90;;;;;;5152954;27;20255;-62
2022/04/22 06:22:33;;;;;;;5.65;4.00;;;8.80;99.90;;;;;;5152525;27;20202;-63
2022/04/22 06:25:00;;;;;;;5.97;5.05;;;8.80;99.90;;;;;;5153631;27;20225;-63
2022/04/22 06:27:28;;;;;;;6.28;4.20;;;8.70;99.90;;;;;;5139981;27;20571;-64
2022/04/22 06:29:56;;;;;;;11.13;4.70;;;8.70;99.90;;;;;;5136249;27;20222;-63
2022/04/22 06:32:26;;;;;;;7.30;4.80;;;8.70;99.90;;;;;;5135537;27;20666;-62
2022/04/22 06:34:54;;;;;;;5.75;4.97;;;8.60;99.90;;;;;;5136745;27;20206;-63
2022/04/22 06:37:22;;;;;;;5.97;4.70;;;8.60;99.90;;;;;;5136444;27;20671;-63
2022/04/22 06:45:47;;;;;;;7.72;5.07;;;8.70;99.90;;;;;;5130244;27;20210;-63
2022/04/22 06:48:16;;;;;;;5.95;4.70;;;8.80;99.90;;;;;;5137052;27;20210;-63
2022/04/22 06:50:44;;;;;;;7.43;4.88;;;8.90;99.90;;;;;;5136364;27;20226;-62
2022/04/22 06:53:11;;;;;;;10.05;5.57;;;8.90;99.90;;;;;;5136582;27;20224;-62
2022/04/22 06:55:41;;;;;;;9.32;5.18;;;9.00;99.90;;;;;;5135441;27;20195;-63
2022/04/22 06:58:11;;;;;;;6.55;5.65;;;9.10;99.90;;;;;;5135500;27;20203;-64
2022/04/22 07:00:38;;;;;;;7.18;5.43;;;9.20;99.60;;;;;;5135745;27;20314;-62
2022/04/22 07:03:07;;;;;;;5.78;5.18;;;9.20;99.70;;;;;;5136017;27;20206;-61
2022/04/22 07:05:35;;;;;;;6.72;5.60;;;9.40;99.40;;;;;;5136745;27;20206;-63
2022/04/22 07:08:03;;;;;;;7.00;5.68;;;9.70;98.80;;;;;;5136544;27;20698;-63
2022/04/22 07:10:31;;;;;;;8.23;5.23;;;9.70;97.80;;;;;;5136727;27;20666;-63
2022/04/22 07:13:00;;;;;;;7.20;5.40;;;9.80;97.80;;;;;;5135768;27;20444;-63
2022/04/22 07:15:28;;;;;;;5.70;4.85;;;9.80;97.50;;;;;;5136239;27;20203;-62
2022/04/22 07:17:56;;;;;;;8.47;5.30;;;9.90;97.20;;;;;;5135134;27;20559;-62
2022/04/22 07:20:24;;;;;;;11.23;6.70;;;9.90;96.90;;;;;;5138183;27;20460;-61
2022/04/22 07:22:53;;;;;;;10.20;5.70;;;9.90;96.90;;;;;;5146509;27;20445;-62
2022/04/22 07:25:21;;;;;;;10.00;5.53;;;10.00;96.30;;;;;;5139012;27;20440;-63
2022/04/22 07:27:49;;;;;;;9.37;5.83;;;10.10;96.00;;;;;;5136775;27;20447;-62
2022/04/22 07:30:19;;;;;;;6.73;6.00;;;10.10;95.60;;;;;;5136136;27;20487;-63
2022/04/22 07:32:48;;;;;;;9.63;6.13;;;10.10;96.00;;;;;;5143416;27;20452;-64
2022/04/22 07:35:17;;;;;;;10.00;6.13;;;10.20;95.60;;;;;;5137136;27;20440;-64
2022/04/22 07:37:47;;;;;;;7.47;6.50;;;10.20;95.30;;;;;;5140911;27;20462;-61
2022/04/22 07:40:16;;;;;;;8.23;6.20;;;10.10;95.60;;;;;;5136237;27;20484;-60
2022/04/22 07:46:46;;;;;;;10.50;7.23;;;10.20;95.70;;;;;;5134925;27;20448;-61
2022/04/22 07:48:22;;;;;;;8.10;6.47;;;10.10;95.60;;;;;;5134626;27;20427;-61
2022/04/22 07:50:50;;;;;;;10.07;6.50;;;10.10;95.20;;;;;;5134472;27;20467;-63
2022/04/22 07:53:19;;;;;;;8.23;6.83;;;10.10;95.00;;;;;;5134188;27;20448;-62
2022/04/22 07:55:47;;;;;;;10.13;6.63;;;10.00;95.00;;;;;;5134682;27;20811;-63
2022/04/22 07:58:15;;;;;;;9.87;7.03;;;10.00;94.90;;;;;;5134331;27;20448;-64
2022/04/22 08:00:44;;;;;;;9.57;7.30;;;10.10;95.30;;;;;;5134618;27;20475;-63
2022/04/22 08:03:12;;;;;;;10.03;7.10;;;10.20;95.20;;;;;;5135267;27;20477;-62
2022/04/22 08:05:39;;;;;;;7.47;6.70;;;10.40;95.00;;;;;;5135926;27;20448;-62
2022/04/22 08:08:07;;;;;;;8.23;7.20;;;10.40;94.00;;;;;;5135833;27;20452;-63
2022/04/22 08:10:35;;;;;;;9.20;7.20;;;10.20;94.10;;;;;;5135567;28;20480;-63
2022/04/22 08:13:03;;;;;;;8.20;7.40;;;10.10;94.50;;;;;;5140153;28;20971;-62
2022/04/22 08:15:31;;;;;;;10.40;7.00;;;10.10;95.10;;;;;;5139356;27;20471;-62
2022/04/22 08:17:59;;;;;;;11.63;7.07;;;10.30;95.20;;;;;;5135565;28;20449;-62
2022/04/22 08:20:26;;;;;;;10.30;7.03;;;10.60;94.80;;;;;;5134793;28;20457;-64
2022/04/22 08:22:53;;;;;;;10.33;7.27;;;10.90;94.20;;;;;;5134786;27;20441;-63
2022/04/22 08:25:20;;;;;;;9.67;6.97;;;11.20;92.90;;;;;;5134933;28;20444;-59
2022/04/22 08:27:48;;;;;;;6.93;6.23;;;11.40;92.20;;;;;;5135402;28;20935;-65
2022/04/22 08:30:15;;;;;;;8.87;7.20;;;11.50;91.60;;;;;;5135129;28;20477;-63
2022/04/22 08:32:42;;;;;;;9.40;7.10;;;11.40;91.20;;;;;;5134938;27;20501;-62
2022/04/22 08:35:11;;;;;;;8.67;7.80;;;11.30;91.30;;;;;;5134418;28;20460;-63
2022/04/22 08:37:38;;;;;;;10.60;8.23;;;11.10;91.50;;;;;;5134274;28;20444;-63
2022/04/22 08:40:07;;;;;;;8.77;7.50;;;11.00;92.30;;;;;;5135342;28;20464;-62
2022/04/22 08:42:36;;;;;;;10.53;8.50;;;11.10;91.70;;;;;;5135219;27;20932;-63
2022/04/22 08:45:03;;;;;;;9.03;7.73;;;11.10;91.50;;;;;;5136466;27;20445;-63
2022/04/22 08:50:18;;;;;;;11.63;7.93;;;10.90;91.70;;;;;;5134720;28;20603;-63
2022/04/22 08:52:50;;;;;;;10.73;7.63;;;10.90;91.80;;;;;;5134295;28;20547;-63
2022/04/22 08:55:20;;;;;;;9.20;7.00;;;11.00;91.70;;;;;;5136536;27;20452;-63
2022/04/22 08:57:47;;;;;;;10.30;7.73;;;11.20;91.30;;;;;;5138074;27;20463;-63
2022/04/22 09:00:16;;;;;;;15.37;8.70;;;11.30;90.50;;;;;;5137204;27;20835;-63
2022/04/22 09:02:43;;;;;;;12.83;9.23;;;11.30;90.30;;;;;;5137930;27;20445;-64
2022/04/22 09:05:10;;;;;;;11.27;7.67;;;11.20;90.20;;;;;;5138113;27;20436;-63
2022/04/22 09:07:42;;;;;;;10.70;7.90;;;11.10;90.70;;;;;;5138591;27;20452;-62
2022/04/22 09:10:09;;;;;;;7.97;7.10;;;11.30;90.60;;;;;;5137792;27;21014;-63
2022/04/22 09:12:37;;;;;;;9.43;7.40;;;11.40;90.10;;;;;;5138339;27;20445;-61
2022/04/22 09:15:06;;;;;;;8.47;7.70;;;11.40;90.10;;;;;;5138498;27;20468;-62
2022/04/22 09:17:35;;;;;;;11.50;8.83;;;11.40;90.00;;;;;;5137732;27;20523;-64
2022/04/22 09:20:06;;;;;;;11.83;7.43;;;11.60;89.20;;;;;;5137500;27;20460;-63
2022/04/22 09:22:35;;;;;;;9.87;7.23;;;11.70;88.50;;;;;;5137290;27;20425;-62
2022/04/22 09:25:05;;;;;;;8.30;7.47;;;11.80;87.30;;;;;;5137933;27;20465;-62
2022/04/22 09:27:33;;;;;;;11.20;8.00;;;11.80;85.90;;;;;;5137466;27;20476;-64
2022/04/22 09:30:02;;;;;;;11.07;7.93;;;11.70;85.90;;;;;;5138214;27;20487;-64
2022/04/22 09:32:30;;;;;;;11.17;8.20;;;11.70;86.00;;;;;;5137319;27;20967;-62
2022/04/22 09:34:58;;;;;;;10.40;9.03;;;11.80;85.90;;;;;;5137177;27;20436;-64
2022/04/22 09:42:56;;;;;;;9.30;7.70;;;12.20;84.80;;;;;;5137073;27;20416;-64
2022/04/22 09:45:35;;;;;;;8.27;7.30;;;12.50;83.20;;;;;;5137105;27;20452;-64
2022/04/22 09:48:12;;;;;;;9.57;8.13;;;12.60;82.90;;;;;;5137137;27;20452;-61
2022/04/22 09:50:44;;;;;;;10.00;7.63;;;12.80;81.10;;;;;;5137111;27;20479;-64
2022/04/22 09:53:14;;;;;;;9.30;8.00;;;13.00;80.20;;;;;;5136575;27;20788;-62
2022/04/22 09:55:52;;;;;;;9.20;8.30;;;13.20;79.10;;;;;;5137193;27;20455;-63
2022/04/22 09:58:26;;;;;;;9.60;8.50;;;13.20;78.10;;;;;;5137342;27;20439;-64
2022/04/22 10:00:59;;;;;;;10.23;9.10;;;13.30;78.30;;;;;;5136845;27;20460;-64
2022/04/22 10:03:29;;;;;;;10.23;8.80;;;13.40;77.60;;;;;;5136802;27;20417;-64
2022/04/22 10:05:56;;;;;;;13.30;8.73;;;13.50;77.10;;;;;;5138082;27;20768;-63
2022/04/22 10:08:25;;;;;;;11.50;8.73;;;13.70;76.00;;;;;;5141128;27;20460;-65
2022/04/22 10:10:57;;;;;;;10.23;7.80;;;13.80;74.50;;;;;;5138400;27;20519;-62
2022/04/22 10:13:33;;;;;;;10.70;9.60;;;13.80;73.30;;;;;;5138757;27;20421;-64
2022/04/22 10:16:02;;;;;;;10.43;9.53;;;13.70;73.30;;;;;;5137794;27;20789;-64
2022/04/22 10:18:31;;;;;;;11.93;10.63;;;13.70;73.80;;;;;;5137191;27;20490;-63
2022/04/22 10:20:59;;;;;;;16.23;10.37;;;13.70;73.50;;;;;;5139039;27;20506;-63
2022/04/22 10:23:29;;;;;;;13.50;12.10;;;13.70;73.60;;;;;;5138998;27;20816;-63
2022/04/22 10:25:58;;;;;;;11.50;10.30;;;13.60;73.80;;;;;;5137416;27;20451;-63
2022/04/22 10:28:26;;;;;;;13.30;11.77;;;13.60;75.00;;;;;;5136125;27;20432;-63
2022/04/22 10:30:55;;;;;;;16.57;11.00;;;13.70;75.30;;;;;;5135673;27;20492;-63
2022/04/22 10:33:26;;;;;;;15.07;12.30;;;13.90;74.60;;;;;;5136551;27;20437;-64
2022/04/22 10:35:59;;;;;;;13.50;12.10;;;13.90;73.80;;;;;;5136456;27;20908;-64
2022/04/22 10:38:30;;;;;;;14.87;13.27;;;14.10;73.70;;;;;;5136777;27;20797;-63
2022/04/22 10:41:02;;;;;;;14.30;12.73;;;14.20;72.20;;;;;;5136931;27;20468;-63
2022/04/22 10:43:30;;;;;;;15.53;13.03;;;14.30;71.80;;;;;;5137822;27;20780;-64
2022/04/22 10:49:10;;;;;;;16.97;13.50;;;14.60;70.90;;;;;;5138065;27;20763;-63
2022/04/22 10:51:59;;;;;;;15.03;13.43;;;14.70;69.50;;;;;;5137410;27;20453;-64
2022/04/22 10:55:00;;;;;;;15.10;11.97;;;14.80;69.00;;;;;;5138167;27;20430;-63
2022/04/22 10:57:31;;;;;;;17.57;15.43;;;14.80;68.60;;;;;;5137973;27;20429;-63
2022/04/22 11:00:27;;;;;;;16.73;14.07;;;14.90;67.90;;;;;;5135600;27;20463;-64
2022/04/22 11:03:10;;;;;;;15.30;13.77;;;15.10;67.20;;;;;;5135664;27;20425;-63
2022/04/22 11:05:39;;;;;;;15.70;13.43;;;15.30;66.60;;;;;;5136027;27;20788;-63
2022/04/22 11:08:08;;;;;;;15.03;13.53;;;15.60;65.40;;;;;;5136012;27;20459;-63
2022/04/22 11:11:02;;;;;;;14.13;12.73;;;15.90;63.70;;;;;;5135753;27;20494;-62
2022/04/22 11:13:32;;;;;;;15.50;13.90;;;16.00;63.00;;;;;;5135885;27;20463;-66
2022/04/22 11:15:59;;;;;;;14.73;13.23;;;16.20;62.30;;;;;;5135591;27;20448;-64
2022/04/22 11:18:27;;;;;;;14.60;13.10;;;16.30;61.50;;;;;;5135726;27;20448;-64
2022/04/22 11:21:02;;;;;;;13.80;12.40;;;16.30;61.10;;;;;;5136328;27;20964;-64
2022/04/22 11:23:36;;;;;;;16.57;12.60;;;16.30;61.00;;;;;;5136348;27;20435;-63
2022/04/22 11:26:04;;;;;;;13.80;12.40;;;16.30;61.10;;;;;;5136440;27;20820;-63
2022/04/22 11:28:37;;;;;;;14.57;13.10;;;16.50;61.60;;;;;;5137826;27;20447;-62
2022/04/22 11:31:06;;;;;;;14.97;13.30;;;16.60;60.20;;;;;;5139323;27;20506;-64
2022/04/22 11:33:45;;;;;;;17.60;15.07;;;16.60;59.70;;;;;;5138358;27;20455;-61
2022/04/22 11:36:13;;;;;;;15.73;12.43;;;16.50;59.60;;;;;;5139316;27;20424;-64
2022/04/22 11:38:47;;;;;;;13.63;12.23;;;16.60;59.80;;;;;;5137002;27;20444;-64
2022/04/22 11:41:14;;;;;;;13.67;12.00;;;16.50;59.30;;;;;;5136765;27;20468;-63
2022/04/22 11:43:43;;;;;;;12.57;11.27;;;16.50;59.60;;;;;;5137142;27;20550;-64
2022/04/22 11:46:12;;;;;;;16.53;11.57;;;16.40;59.70;;;;;;5135966;27;20448;-64
2022/04/22 11:48:46;;;;;;;11.80;10.67;;;16.40;60.00;;;;;;5136148;27;20448;-63
2022/04/22 11:51:15;;;;;;;12.80;10.50;;;16.50;60.00;;;;;;5136512;27;20484;-65
2022/04/22 11:53:49;;;;;;;10.03;9.03;;;16.70;59.70;;;;;;5137489;27;20448;-64
2022/04/22 11:56:21;;;;;;;11.00;9.50;;;17.20;58.70;;;;;;5136851;27;20439;-64
2022/04/22 11:58:54;;;;;;;11.90;10.20;;;17.40;57.60;;;;;;5137939;27;20942;-63
2022/04/22 12:06:57;;;;;;;9.60;8.70;;;17.40;56.80;;;;;;5141690;27;20408;-63
2022/04/22 12:09:25;;;;;;;11.67;8.77;;;17.30;56.90;;;;;;5141242;28;20452;-63
2022/04/22 12:11:53;;;;;;;11.80;10.10;;;17.10;57.20;;;;;;5142270;28;20571;-64
2022/04/22 12:14:26;;;;;;;10.80;9.70;;;17.00;57.60;;;;;;5145880;28;20436;-62
2022/04/22 12:16:57;;;;;;;10.43;9.43;;;16.80;58.00;;;;;;5145024;28;20437;-64
2022/04/22 12:19:25;;;;;;;10.83;9.80;;;16.60;58.70;;;;;;5140876;28;20477;-63
2022/04/22 12:21:53;;;;;;;10.70;9.70;;;16.40;59.40;;;;;;5134984;28;20548;-64
2022/04/22 12:24:21;;;;;;;10.97;9.83;;;16.30;60.30;;;;;;5134181;28;20497;-63
2022/04/22 12:26:51;;;;;;;11.10;9.07;;;16.20;61.00;;;;;;5134591;27;20452;-63
2022/04/22 12:29:18;;;;;;;9.70;8.57;;;16.20;61.30;;;;;;5138746;27;20531;-63
2022/04/22 12:31:48;;;;;;;11.17;8.30;;;16.20;61.30;;;;;;5148834;27;20479;-62
2022/04/22 12:34:25;;;;;;;9.10;8.20;;;16.20;61.40;;;;;;5151086;27;20443;-64
2022/04/22 12:36:56;;;;;;;12.90;7.97;;;16.10;61.80;;;;;;5148132;27;20446;-64
2022/04/22 12:39:35;;;;;;;9.27;8.37;;;16.20;62.10;;;;;;5145175;27;20448;-65
2022/04/22 12:42:02;;;;;;;8.30;7.47;;;16.50;61.80;;;;;;5139352;27;20456;-65
2022/04/22 12:44:29;;;;;;;8.30;7.40;;;16.80;60.50;;;;;;5139278;27;20440;-62
2022/04/22 12:52:36;;;;;;;9.73;8.30;;;17.70;57.20;;;;;;5140450;27;20915;-63
2022/04/22 12:55:05;;;;;;;8.30;7.50;;;17.70;56.60;;;;;;5138327;27;20581;-64
2022/04/22 12:57:33;;;;;;;8.50;7.23;;;17.60;56.50;;;;;;5137681;27;20905;-62
2022/04/22 13:00:00;;;;;;;9.90;7.87;;;17.40;56.90;;;;;;5140946;27;20472;-64
2022/04/22 13:02:30;;;;;;;8.10;7.40;;;17.40;57.20;;;;;;5146270;27;20513;-64
2022/04/22 13:04:59;;;;;;;8.53;7.57;;;17.40;57.20;;;;;;5142604;27;20448;-64
2022/04/22 13:07:38;;;;;;;9.27;7.40;;;17.50;57.20;;;;;;5138729;27;20443;-63
2022/04/22 13:10:05;;;;;;;7.83;7.03;;;17.60;56.80;;;;;;5137271;27;20477;-64
2022/04/22 13:12:34;;;;;;;8.40;6.90;;;17.70;56.50;;;;;;5137814;27;20440;-63
2022/04/22 13:15:02;;;;;;;8.30;6.47;;;17.70;55.60;;;;;;5137271;27;20445;-64
2022/04/22 13:17:30;;;;;;;9.10;6.10;;;17.70;55.00;;;;;;5137742;27;20851;-61
2022/04/22 13:19:57;;;;;;;7.50;6.40;;;17.80;54.50;;;;;;5137655;27;20490;-64
2022/04/22 13:22:24;;;;;;;6.90;6.20;;;17.80;53.90;;;;;;5138087;27;20445;-64
2022/04/22 13:24:51;;;;;;;8.33;6.50;;;17.90;53.30;;;;;;5139779;27;20443;-64
2022/04/22 13:27:18;;;;;;;6.47;5.87;;;17.90;53.10;;;;;;5139061;27;20440;-64
2022/04/22 13:29:46;;;;;;;6.60;5.30;;;17.80;52.90;;;;;;5137716;27;20456;-63
2022/04/22 13:32:13;;;;;;;6.97;5.50;;;17.70;52.80;;;;;;5138216;27;20481;-63
2022/04/22 13:34:41;;;;;;;6.40;5.20;;;17.60;52.70;;;;;;5138134;27;20787;-62
2022/04/22 13:37:11;;;;;;;7.70;5.20;;;17.60;52.70;;;;;;5138572;27;20448;-63
2022/04/22 13:39:38;;;;;;;5.90;5.30;;;17.70;52.70;;;;;;5140277;27;20452;-64
2022/04/22 13:42:06;;;;;;;6.27;5.07;;;17.70;52.20;;;;;;5139283;27;20540;-63
2022/04/22 13:52:56;;;;;;;9.37;4.20;;;17.10;51.90;;;;;;5100316;27;20421;-62
2022/04/22 13:55:23;;;;;;;4.00;3.60;;;16.90;51.80;;;;;;5137376;27;20443;-63
2022/04/22 13:57:51;;;;;;;5.27;3.40;;;16.80;51.60;;;;;;5136817;27;20441;-65
2022/04/22 14:00:19;;;;;;;5.70;3.20;;;16.80;51.40;;;;;;5138026;27;20967;-62
2022/04/22 14:02:46;;;;;;;5.40;3.30;;;16.80;51.40;;;;;;5137998;27;20445;-64
2022/04/22 14:05:20;;;;;;;3.93;3.50;;;16.90;51.50;;;;;;5137757;27;20441;-64
2022/04/22 14:07:48;;;;;;;3.43;3.13;;;16.90;50.80;;;;;;5137504;27;20444;-64